createdAt,value
2019-04-22T00:01:08.330Z,99145.64
2019-04-22T00:03:47.440Z,99145.11
2019-04-22T00:06:40.916Z,99138.98
2019-04-22T00:09:14.794Z,99136.78
2019-04-22T00:12:01.763Z,99130.75
2019-04-22T00:14:11.645Z,99127.69
2019-04-22T00:17:00.450Z,99128.92
2019-04-22T00:22:07.714Z,99126.80
2019-04-22T00:24:39.071Z,99123.03
2019-04-22T00:27:14.087Z,99114.78
2019-04-22T00:30:05.295Z,99109.37
2019-04-22T00:32:24.507Z,99108.54
2019-04-22T00:35:02.355Z,99108.30
2019-04-22T00:37:56.952Z,99106.80
2019-04-22T00:40:19.643Z,99107.20
2019-04-22T00:42:47.747Z,99095.15
2019-04-22T00:45:39.931Z,99094.94
2019-04-22T00:47:54.861Z,99088.83
2019-04-22T00:50:30.262Z,99087.69
2019-04-22T00:53:08.618Z,99074.58
2019-04-22T00:55:51.083Z,99072.98
2019-04-22T00:58:24.382Z,99071.73
2019-04-22T01:00:58.690Z,99068.03
2019-04-22T01:03:34.292Z,99071.34
2019-04-22T01:06:03.481Z,99067.80
2019-04-22T01:08:46.829Z,99062.76
2019-04-22T01:11:16.892Z,99061.03
2019-04-22T01:13:46.909Z,99065.42
2019-04-22T01:16:22.667Z,99055.41
2019-04-22T01:18:53.819Z,99046.56
2019-04-22T01:21:42.176Z,99042.83
2019-04-22T01:24:15.729Z,99044.66
2019-04-22T01:26:43.586Z,99034.89
2019-04-22T01:29:14.643Z,99035.61
2019-04-22T01:31:40.023Z,99037.58
2019-04-22T01:34:27.895Z,99038.59
2019-04-22T01:37:02.566Z,99031.03
2019-04-22T01:39:44.355Z,99026.48
2019-04-22T01:42:21.279Z,99025.41
2019-04-22T01:44:50.521Z,99029.23
2019-04-22T01:47:32.508Z,99021.22
2019-04-22T01:50:06.312Z,99020.05
2019-04-22T01:52:36.710Z,99019.70
2019-04-22T01:55:18.902Z,99020.78
2019-04-22T01:57:45.961Z,99017.58
2019-04-22T02:00:11.411Z,99012.05
2019-04-22T02:02:59.672Z,99009.55
2019-04-22T02:05:28.739Z,99013.23
2019-04-22T02:08:06.767Z,99006.70
2019-04-22T02:10:39.235Z,99008.91
2019-04-22T02:13:06.693Z,99005.16
2019-04-22T02:15:47.323Z,98996.81
2019-04-22T02:18:23.177Z,98992.27
2019-04-22T02:20:48.622Z,98989.30
2019-04-22T02:31:40.616Z,98995.83
2019-04-22T02:36:30.432Z,98990.28
2019-04-22T02:39:15.337Z,98983.76
2019-04-22T02:41:49.907Z,98992.56
2019-04-22T02:47:14.398Z,98987.20
2019-04-22T02:49:50.891Z,98977.89
2019-04-22T02:52:14.604Z,98982.36
2019-04-22T02:57:26.133Z,98977.23
2019-04-22T03:05:59.222Z,98987.78
2019-04-22T03:16:14.058Z,98977.29
2019-04-22T03:18:57.212Z,98975.19
2019-04-22T03:26:30.752Z,98965.75
2019-04-22T03:28:51.129Z,98962.91
2019-04-22T03:32:40.571Z,98961.00
2019-04-22T03:42:21.011Z,98946.81
2019-04-22T03:45:00.638Z,98945.44
2019-04-22T03:47:29.994Z,98942.82
2019-04-22T03:52:26.992Z,98929.83
2019-04-22T04:00:17.415Z,98931.69
2019-04-22T04:02:46.985Z,98918.61
2019-04-22T04:05:33.854Z,98917.22
2019-04-22T04:07:55.497Z,98916.27
2019-04-22T04:13:05.603Z,98906.09
2019-04-22T04:15:32.819Z,98908.98
2019-04-22T04:18:09.297Z,98909.94
2019-04-22T04:20:45.252Z,98900.23
2019-04-22T04:23:31.448Z,98902.09
2019-04-22T04:25:52.029Z,98901.34
2019-04-22T04:28:53.193Z,98898.80
2019-04-22T04:30:59.785Z,98899.47
2019-04-22T04:33:40.704Z,98898.52
2019-04-22T04:38:45.749Z,98894.02
2019-04-22T04:43:59.718Z,98883.83
2019-04-22T04:46:46.678Z,98881.58
2019-04-22T04:51:33.277Z,98879.05
2019-04-22T04:54:15.121Z,98877.83
2019-04-22T04:59:28.007Z,98883.48
2019-04-22T05:04:41.897Z,98873.79
2019-04-22T05:09:44.701Z,98863.06
2019-04-22T05:12:12.288Z,98869.89
2019-04-22T05:14:41.605Z,98868.09
2019-04-22T05:22:38.119Z,98869.12
2019-04-22T05:30:34.624Z,98856.19
2019-04-22T05:35:26.648Z,98860.05
2019-04-22T05:38:08.549Z,98853.48
2019-04-22T05:40:28.348Z,98858.61
2019-04-22T05:43:11.082Z,98856.16
2019-04-22T05:45:43.272Z,98855.15
2019-04-22T05:48:23.154Z,98853.28
2019-04-22T05:50:57.290Z,98854.80
2019-04-22T05:53:25.446Z,98849.99
2019-04-22T05:56:10.122Z,98852.13
2019-04-22T05:58:38.454Z,98847.56
2019-04-22T06:03:52.822Z,98846.64
2019-04-22T06:06:17.889Z,98853.67
2019-04-22T06:09:00.024Z,98849.75
2019-04-22T06:14:00.900Z,98853.78
2019-04-22T06:16:38.175Z,98857.58
2019-04-22T06:19:14.373Z,98859.65
2019-04-22T06:21:43.569Z,98863.27
2019-04-22T06:24:22.529Z,98861.66
2019-04-22T06:27:01.672Z,98855.05
2019-04-22T06:29:30.210Z,98852.65
2019-04-22T06:32:23.017Z,98858.83
2019-04-22T06:34:35.839Z,98850.41
2019-04-22T06:37:13.035Z,98847.67
2019-04-22T06:39:44.798Z,98849.39
2019-04-22T06:42:26.600Z,98840.73
2019-04-22T06:44:54.609Z,98834.62
2019-04-22T06:47:39.842Z,98834.00
2019-04-22T06:49:58.913Z,98827.15
2019-04-22T06:52:28.096Z,98828.08
2019-04-22T06:55:09.756Z,98828.05
2019-04-22T07:00:23.040Z,98816.04
2019-04-22T07:03:17.235Z,98821.66
2019-04-22T07:05:23.327Z,98815.16
2019-04-22T07:08:12.800Z,98809.23
2019-04-22T07:10:35.384Z,98806.62
2019-04-22T07:13:11.518Z,98813.25
2019-04-22T07:18:18.436Z,98807.65
2019-04-22T07:20:51.319Z,98806.20
2019-04-22T07:25:56.671Z,98809.88
2019-04-22T07:28:23.260Z,98805.84
2019-04-22T07:31:04.033Z,98808.28
2019-04-22T07:33:40.674Z,98813.97
2019-04-22T07:36:30.891Z,98805.80
2019-04-22T07:38:35.925Z,98805.86
2019-04-22T07:41:24.829Z,98802.09
2019-04-22T07:44:07.625Z,98797.16
2019-04-22T07:46:27.945Z,98797.16
2019-04-22T07:48:57.712Z,98796.23
2019-04-22T07:51:32.628Z,98796.41
2019-04-22T07:54:06.174Z,98791.23
2019-04-22T07:56:48.653Z,98790.16
2019-04-22T07:59:15.541Z,98796.32
2019-04-22T08:01:53.809Z,98788.67
2019-04-22T08:04:35.914Z,98786.84
2019-04-22T08:07:06.806Z,98786.00
2019-04-22T08:09:47.664Z,98785.11
2019-04-22T08:12:02.981Z,98781.76
2019-04-22T08:14:45.483Z,98789.00
2019-04-22T08:17:50.231Z,98791.91
2019-04-22T08:19:57.842Z,98791.33
2019-04-22T08:22:25.954Z,98785.28
2019-04-22T08:25:04.186Z,98797.12
2019-04-22T08:27:41.392Z,98788.61
2019-04-22T08:30:17.190Z,98786.92
2019-04-22T08:32:49.284Z,98781.13
2019-04-22T08:35:20.276Z,98774.46
2019-04-22T08:38:24.236Z,98770.28
2019-04-22T08:45:47.514Z,98759.00
2019-04-22T08:48:19.240Z,98756.13
2019-04-22T08:50:48.813Z,98750.87
2019-04-22T08:53:29.209Z,98752.98
2019-04-22T08:56:04.697Z,98747.16
2019-04-22T08:58:28.088Z,98749.39
2019-04-22T09:01:04.513Z,98747.15
2019-04-22T09:03:37.908Z,98746.34
2019-04-22T09:06:28.309Z,98745.69
2019-04-22T09:08:55.314Z,98739.72
2019-04-22T09:11:35.876Z,98735.91
2019-04-22T09:14:01.672Z,98734.23
2019-04-22T09:19:15.125Z,98720.37
2019-04-22T09:24:29.516Z,98717.38
2019-04-22T09:27:08.198Z,98724.75
2019-04-22T09:29:39.509Z,98719.95
2019-04-22T09:32:19.006Z,98718.11
2019-04-22T09:34:47.635Z,98713.05
2019-04-22T09:38:12.022Z,98719.34
2019-04-22T09:40:21.691Z,98719.80
2019-04-22T09:42:56.156Z,98719.77
2019-04-22T09:45:27.563Z,98720.70
2019-04-22T09:48:09.039Z,98721.53
2019-04-22T09:50:43.186Z,98723.08
2019-04-22T09:53:20.232Z,98726.05
2019-04-22T09:55:51.631Z,98720.75
2019-04-22T09:58:26.604Z,98725.02
2019-04-22T10:06:34.025Z,98708.97
2019-04-22T10:09:34.430Z,98707.13
2019-04-22T10:11:50.884Z,98703.17
2019-04-22T10:14:25.015Z,98703.98
2019-04-22T10:16:59.971Z,98696.03
2019-04-22T10:19:38.715Z,98700.30
2019-04-22T10:22:10.525Z,98690.58
2019-04-22T10:24:44.654Z,98682.22
2019-04-22T10:27:21.351Z,98680.27
2019-04-22T10:32:44.580Z,98680.94
2019-04-22T10:35:13.179Z,98669.23
2019-04-22T10:37:42.573Z,98664.16
2019-04-22T10:40:21.759Z,98664.09
2019-04-22T10:42:53.715Z,98655.78
2019-04-22T10:45:26.096Z,98656.17
2019-04-22T10:47:58.602Z,98653.15
2019-04-22T10:50:44.677Z,98648.89
2019-04-22T10:53:19.788Z,98650.37
2019-04-22T10:55:54.388Z,98641.02
2019-04-22T10:58:27.028Z,98637.49
2019-04-22T11:01:00.178Z,98636.90
2019-04-22T11:03:35.210Z,98618.89
2019-04-22T11:06:11.435Z,98610.66
2019-04-22T11:08:50.855Z,98613.27
2019-04-22T11:11:31.546Z,98599.86
2019-04-22T11:13:52.025Z,98599.68
2019-04-22T11:16:25.610Z,98588.87
2019-04-22T11:18:59.238Z,98587.27
2019-04-22T11:21:32.047Z,98583.52
2019-04-22T11:24:05.084Z,98583.30
2019-04-22T11:26:38.842Z,98575.68
2019-04-22T11:29:12.074Z,98569.93
2019-04-22T11:31:44.477Z,98565.80
2019-04-22T11:34:17.192Z,98557.43
2019-04-22T11:36:50.574Z,98561.87
2019-04-22T11:39:23.716Z,98561.15
2019-04-22T11:41:56.062Z,98560.98
2019-04-22T11:44:30.912Z,98553.73
2019-04-22T11:47:11.746Z,98555.03
2019-04-22T11:49:44.024Z,98555.22
2019-04-22T11:52:17.293Z,98560.34
2019-04-22T11:57:28.890Z,98554.84
2019-04-22T12:00:01.184Z,98558.26
2019-04-22T12:14:50.155Z,98547.77
2019-04-22T12:17:22.409Z,98558.38
2019-04-22T12:19:56.200Z,98549.74
2019-04-22T12:22:31.248Z,98541.52
2019-04-22T12:25:04.198Z,98547.83
2019-04-22T12:27:37.227Z,98538.37
2019-04-22T12:30:11.547Z,98534.42
2019-04-22T12:32:43.650Z,98529.41
2019-04-22T12:35:17.850Z,98518.77
2019-04-22T12:37:57.563Z,98516.81
2019-04-22T12:40:38.269Z,98520.30
2019-04-22T12:43:04.655Z,98515.16
2019-04-22T12:45:36.321Z,98509.75
2019-04-22T12:48:10.336Z,98506.59
2019-04-22T12:50:45.646Z,98503.20
2019-04-22T12:53:20.345Z,98492.64
2019-04-22T12:55:54.758Z,98490.57
2019-04-22T12:58:27.736Z,98488.00
2019-04-22T13:01:03.157Z,98483.72
2019-04-22T13:03:36.134Z,98474.69
2019-04-22T13:06:09.794Z,98478.73
2019-04-22T13:08:43.538Z,98478.74
2019-04-22T13:11:19.671Z,98479.89
2019-04-22T13:13:51.239Z,98469.27
2019-04-22T13:16:24.820Z,98474.25
2019-04-22T13:19:17.032Z,98461.83
2019-04-22T13:21:44.821Z,98459.33
2019-04-22T13:24:19.874Z,98463.22
2019-04-22T13:26:55.131Z,98461.33
2019-04-22T13:29:28.445Z,98462.63
2019-04-22T13:32:00.660Z,98458.06
2019-04-22T13:34:39.691Z,98460.91
2019-04-22T13:37:07.416Z,98458.77
2019-04-22T13:39:40.998Z,98467.89
2019-04-22T13:42:17.970Z,98459.88
2019-04-22T13:44:49.715Z,98471.06
2019-04-22T13:47:42.006Z,98476.27
2019-04-22T13:53:10.869Z,98466.93
2019-04-22T13:55:36.645Z,98474.99
2019-04-22T13:57:56.647Z,98478.17
2019-04-22T14:00:18.290Z,98480.77
2019-04-22T14:15:38.059Z,98453.98
2019-04-22T14:18:13.216Z,98469.55
2019-04-22T14:20:46.958Z,98461.27
2019-04-22T14:23:20.495Z,98456.13
2019-04-22T14:25:54.838Z,98401.61
2019-04-22T14:28:29.256Z,98434.83
2019-04-22T14:31:02.285Z,98428.22
2019-04-22T14:33:34.444Z,98428.58
2019-04-22T14:36:07.564Z,98421.98
2019-04-22T14:38:39.910Z,98423.54
2019-04-22T14:44:23.399Z,98425.73
2019-04-22T14:49:41.810Z,98426.30
2019-04-22T14:52:19.402Z,98422.31
2019-04-22T14:54:41.391Z,98429.03
2019-04-22T14:57:05.177Z,98417.48
2019-04-22T14:59:37.789Z,98409.08
2019-04-22T15:02:11.795Z,98415.02
2019-04-22T15:04:45.926Z,98405.56
2019-04-22T15:07:37.064Z,98394.20
2019-04-22T15:10:11.555Z,98343.27
2019-04-22T15:12:46.554Z,98387.49
2019-04-22T15:15:31.309Z,98378.95
2019-04-22T15:18:26.090Z,98374.94
2019-04-22T15:21:18.935Z,98368.38
2019-04-22T15:23:52.899Z,98359.00
2019-04-22T15:26:26.424Z,98356.73
2019-04-22T15:28:59.762Z,98351.97
2019-04-22T15:31:35.476Z,98350.39
2019-04-22T15:34:08.180Z,98349.71
2019-04-22T15:36:40.214Z,98338.95
2019-04-22T15:39:13.511Z,98333.97
2019-04-22T15:42:11.809Z,98327.09
2019-04-22T15:44:42.238Z,98333.59
2019-04-22T15:47:15.181Z,98330.23
2019-04-22T15:49:47.874Z,98329.48
2019-04-22T15:52:31.191Z,98323.69
2019-04-22T15:54:58.404Z,98319.81
2019-04-22T15:57:38.454Z,98315.42
2019-04-22T16:00:39.571Z,98311.87
2019-04-22T16:03:12.551Z,98315.86
2019-04-22T16:05:46.095Z,98309.97
2019-04-22T16:08:19.180Z,98310.47
2019-04-22T16:10:55.707Z,98304.75
2019-04-22T16:13:31.912Z,98299.09
2019-04-22T16:16:04.772Z,98300.83
2019-04-22T16:18:38.056Z,98306.51
2019-04-22T16:21:20.769Z,98300.18
2019-04-22T16:24:09.115Z,98294.52
2019-04-22T16:26:48.571Z,98302.79
2019-04-22T16:29:21.240Z,98302.17
2019-04-22T16:31:53.675Z,98301.33
2019-04-22T16:34:27.229Z,98303.26
2019-04-22T16:37:00.833Z,98297.53
2019-04-22T16:39:46.775Z,98295.97
2019-04-22T16:42:31.178Z,98289.90
2019-04-22T16:44:57.681Z,98290.05
2019-04-22T16:47:35.578Z,98291.22
2019-04-22T16:50:16.008Z,98280.28
2019-04-22T16:52:52.487Z,98280.50
2019-04-22T16:55:26.613Z,98272.11
2019-04-22T16:58:01.078Z,98270.19
2019-04-22T17:00:34.422Z,98276.50
2019-04-22T17:03:42.646Z,98277.34
2019-04-22T17:06:25.641Z,98272.11
2019-04-22T17:09:23.849Z,98272.46
2019-04-22T17:11:58.103Z,98271.60
2019-04-22T17:14:44.441Z,98266.45
2019-04-22T17:17:14.949Z,98256.97
2019-04-22T17:19:49.204Z,98254.23
2019-04-22T17:22:21.826Z,98245.28
2019-04-22T17:24:58.274Z,98247.72
2019-04-22T17:27:37.037Z,98238.44
2019-04-22T17:30:10.607Z,98237.09
2019-04-22T17:32:50.491Z,98221.78
2019-04-22T17:35:22.445Z,98220.13
2019-04-22T17:38:08.765Z,98217.16
2019-04-22T17:40:56.205Z,98217.48
2019-04-22T17:43:44.172Z,98219.28
2019-04-22T17:46:19.450Z,98213.86
2019-04-22T17:49:16.524Z,98178.33
2019-04-22T17:52:17.617Z,98200.88
2019-04-22T18:07:54.869Z,98177.80
2019-04-22T18:12:40.086Z,98172.70
2019-04-22T18:14:15.720Z,98167.25
2019-04-22T18:16:41.287Z,98166.61
2019-04-22T18:19:15.491Z,98157.02
2019-04-22T18:28:30.335Z,98152.05
2019-04-22T18:31:03.161Z,98150.39
2019-04-22T18:33:37.074Z,98073.46
2019-04-22T18:36:12.616Z,98149.54
2019-04-22T18:38:51.502Z,98152.06
2019-04-22T18:41:17.905Z,98152.57
2019-04-22T18:44:06.186Z,98142.63
2019-04-22T18:46:37.083Z,98135.35
2019-04-22T18:49:08.072Z,98137.48
2019-04-22T18:51:51.382Z,98135.49
2019-04-22T18:54:55.283Z,98128.41
2019-04-22T18:57:41.641Z,98130.95
2019-04-22T19:00:06.624Z,98126.83
2019-04-22T19:02:49.487Z,98131.92
2019-04-22T19:05:27.955Z,98134.61
2019-04-22T19:08:18.378Z,98122.58
2019-04-22T19:10:57.701Z,98126.41
2019-04-22T19:16:15.743Z,98113.48
2019-04-22T19:24:34.453Z,98112.01
2019-04-22T19:27:25.102Z,98103.67
2019-04-22T19:30:42.788Z,98076.50
2019-04-22T19:33:19.034Z,98112.88
2019-04-22T19:39:13.238Z,98107.53
2019-04-22T19:42:06.705Z,98040.05
2019-04-22T19:44:34.255Z,98117.05
2019-04-22T19:47:21.083Z,98114.94
2019-04-22T19:49:52.598Z,98113.98
2019-04-22T19:52:24.400Z,98113.16
2019-04-22T19:54:55.012Z,98119.37
2019-04-22T19:57:31.372Z,98135.48
2019-04-22T20:00:05.439Z,98131.94
2019-04-22T20:03:20.262Z,98133.08
2019-04-22T20:06:01.374Z,98137.19
2019-04-22T20:08:36.630Z,98139.47
2019-04-22T20:11:13.192Z,98162.64
2019-04-22T20:13:41.474Z,98164.65
2019-04-22T20:16:06.170Z,98174.55
2019-04-22T20:18:58.982Z,98184.55
2019-04-22T20:21:29.884Z,98205.70
2019-04-22T20:23:53.769Z,98208.17
2019-04-22T20:26:44.161Z,98215.19
2019-04-22T20:29:21.095Z,98216.34
2019-04-22T20:31:51.291Z,98213.08
2019-04-22T20:34:23.870Z,98227.50
2019-04-22T20:37:08.645Z,98227.34
2019-04-22T20:39:38.022Z,98227.83
2019-04-22T20:42:36.936Z,98222.59
2019-04-22T20:45:04.223Z,98234.87
2019-04-22T20:47:32.238Z,98240.45
2019-04-22T20:50:14.362Z,98247.48
2019-04-22T20:52:53.997Z,98253.05
2019-04-22T20:55:16.220Z,98252.88
2019-04-22T20:58:13.317Z,98251.41
2019-04-22T21:00:46.448Z,98255.49
2019-04-22T21:03:26.662Z,98253.21
2019-04-22T21:06:07.200Z,98254.68
2019-04-22T21:08:47.592Z,98254.53
2019-04-22T21:11:33.987Z,98230.63
2019-04-22T21:14:15.051Z,98249.45
2019-04-22T21:17:00.395Z,98248.13
2019-04-22T21:19:55.991Z,98256.97
2019-04-22T21:22:30.820Z,98254.52
2019-04-22T21:24:55.390Z,98252.70
2019-04-22T21:27:37.066Z,98247.79
2019-04-22T21:29:58.681Z,98258.73
2019-04-22T21:32:38.888Z,98269.88
2019-04-22T21:35:22.874Z,98260.89
2019-04-22T21:37:51.296Z,98246.78
2019-04-22T21:40:24.487Z,98251.36
2019-04-22T21:43:10.675Z,98243.83
2019-04-22T21:45:23.776Z,98246.13
2019-04-22T21:48:20.330Z,98258.06
2019-04-22T21:50:48.082Z,98258.84
2019-04-22T21:53:27.404Z,98250.00
2019-04-22T21:56:04.005Z,98244.78
2019-04-22T21:58:31.867Z,98258.88
2019-04-22T22:01:33.054Z,98255.27
2019-04-22T22:04:00.244Z,98252.42
2019-04-22T22:06:23.478Z,98245.55
2019-04-22T22:09:08.984Z,98232.35
2019-04-22T22:11:38.640Z,98225.19
2019-04-22T22:14:13.584Z,98202.77
2019-04-22T22:16:42.925Z,98188.86
2019-04-22T22:19:22.484Z,98185.24
2019-04-22T22:22:05.945Z,98179.01
2019-04-22T22:24:35.902Z,98187.19
2019-04-22T22:27:04.517Z,98190.74
2019-04-22T22:29:49.287Z,98193.02
2019-04-22T22:32:16.537Z,98189.58
2019-04-22T22:35:01.725Z,98176.62
2019-04-22T22:37:17.087Z,98155.70
2019-04-22T22:39:51.624Z,98137.56
2019-04-22T22:42:23.789Z,98146.23
2019-04-22T22:44:54.513Z,98161.26
2019-04-22T22:47:42.208Z,98157.35
2019-04-22T22:50:18.620Z,98164.89
2019-04-22T22:53:00.949Z,98150.83
2019-04-22T22:55:22.017Z,98159.98
2019-04-22T22:57:58.414Z,98183.55
2019-04-22T23:00:33.898Z,98190.64
2019-04-22T23:03:38.376Z,98190.83
2019-04-22T23:05:50.518Z,98179.96
2019-04-22T23:08:20.072Z,98175.39
2019-04-22T23:11:01.030Z,98176.56
2019-04-22T23:13:31.484Z,98172.66
2019-04-22T23:16:00.466Z,98180.50
2019-04-22T23:18:19.781Z,98181.48
2019-04-22T23:20:54.032Z,98178.38
2019-04-22T23:23:43.949Z,98188.19
2019-04-22T23:26:40.378Z,98191.08
2019-04-22T23:29:27.011Z,98173.91
2019-04-22T23:32:08.795Z,98201.03
2019-04-22T23:34:49.322Z,98163.09
2019-04-22T23:37:29.318Z,98178.02
2019-04-22T23:40:20.430Z,98180.33
2019-04-22T23:42:46.860Z,98165.92
2019-04-22T23:45:15.478Z,98140.08
2019-04-22T23:47:43.457Z,98165.30
2019-04-22T23:50:29.352Z,98172.33
2019-04-22T23:53:03.451Z,98162.99
2019-04-22T23:55:39.801Z,98174.09
2019-04-22T23:58:13.465Z,98169.86
